Time;durP1;ratioP1;P1;durP2;ratioP2;P2;SDS_P1;SDS_P2;PMS_P1;PMS_P2;Temp;Humidity;BMP_temperature;BMP_pressure;BME280_temperature;BME280_humidity;BME280_pressure;Samples;Min_cycle;Max_cycle;Signal;HPM_P1;HPM_P2
2021/11/23 00:08:48;;;;;;;9.90;4.90;;;;;;;0.63;88.60;101612.66;20913528;28;20045;-80
2021/11/23 00:18:49;;;;;;;10.18;5.22;;;;;;;0.43;89.72;101616.88;20926845;28;20094;-80
2021/11/23 00:28:51;;;;;;;15.00;5.93;;;;;;;0.36;89.81;101627.75;20940868;28;20057;-80
2021/11/23 00:38:52;;;;;;;11.90;5.57;;;;;;;0.23;89.71;101641.75;20916399;28;20041;-80
2021/11/23 00:48:54;;;;;;;13.55;5.55;;;;;;;0.13;90.40;101640.44;20926896;28;20067;-81
2021/11/23 00:58:56;;;;;;;10.02;5.13;;;;;;;0.04;90.58;101647.75;20921799;28;20551;-81
2021/11/23 01:08:57;;;;;;;10.73;5.70;;;;;;;-0.01;90.99;101649.22;20917202;28;20049;-81
2021/11/23 01:18:59;;;;;;;13.13;6.55;;;;;;;-0.03;91.01;101648.28;20931505;28;20094;-81
2021/11/23 01:29:03;;;;;;;13.13;6.38;;;;;;;-0.14;90.97;101642.63;20911220;28;20071;-81
2021/11/23 01:39:05;;;;;;;11.77;6.33;;;;;;;-0.13;91.63;101643.50;20922272;28;20517;-83
2021/11/23 01:49:07;;;;;;;12.13;6.28;;;;;;;-0.11;91.00;101649.59;20919087;28;20049;-82
2021/11/23 01:59:08;;;;;;;13.45;6.40;;;;;;;-0.36;91.15;101661.28;20898105;28;20364;-83
2021/11/23 02:09:10;;;;;;;14.52;6.15;;;;;;;-0.48;91.71;101662.38;20917039;28;20049;-82
2021/11/23 02:19:11;;;;;;;14.18;7.28;;;;;;;-0.63;92.00;101654.78;20906998;28;20045;-83
2021/11/23 02:29:13;;;;;;;12.52;6.63;;;;;;;-0.86;92.43;101651.97;20908090;28;20068;-82
2021/11/23 02:39:14;;;;;;;11.85;6.38;;;;;;;-0.87;93.35;101664.72;20907747;28;20037;-82
2021/11/23 02:49:19;;;;;;;15.23;8.70;;;;;;;-0.83;93.33;101662.41;20927906;28;20490;-82
2021/11/23 02:59:21;;;;;;;14.02;7.40;;;;;;;-0.81;93.94;101665.94;20914097;28;20052;-82
2021/11/23 03:09:22;;;;;;;12.82;6.82;;;;;;;-0.70;93.68;101657.88;20931070;28;20033;-82
2021/11/23 03:19:24;;;;;;;12.15;7.03;;;;;;;-0.74;93.82;101650.81;20951768;28;20045;-82
2021/11/23 03:29:25;;;;;;;14.57;8.15;;;;;;;-0.68;93.22;101648.53;20925740;28;20114;-82
2021/11/23 03:39:27;;;;;;;15.30;7.85;;;;;;;-0.78;93.90;101650.66;20889053;28;20099;-82
2021/11/23 03:49:28;;;;;;;14.93;7.72;;;;;;;-0.80;93.34;101657.41;20906636;28;20049;-83
2021/11/23 03:59:30;;;;;;;12.85;7.88;;;;;;;-0.86;93.59;101654.53;20913680;28;20045;-82
2021/11/23 04:09:31;;;;;;;16.25;8.05;;;;;;;-0.91;93.85;101657.66;20915917;28;20045;-82
2021/11/23 04:19:34;;;;;;;14.70;8.63;;;;;;;-1.09;94.57;101649.91;20901213;28;20550;-82
2021/11/23 04:29:36;;;;;;;16.02;8.27;;;;;;;-1.14;94.73;101659.97;20915102;28;20053;-82
2021/11/23 04:39:37;;;;;;;16.73;8.52;;;;;;;-1.15;94.27;101662.44;20913644;28;20041;-82
2021/11/23 04:49:39;;;;;;;17.15;8.50;;;;;;;-1.17;94.14;101661.47;20888168;28;20139;-81
2021/11/23 04:59:40;;;;;;;16.40;8.98;;;;;;;-1.20;94.54;101664.75;20919536;28;20053;-81
2021/11/23 05:09:42;;;;;;;17.95;9.18;;;;;;;-1.41;94.75;101671.34;20919251;28;20049;-79
2021/11/23 05:19:44;;;;;;;17.33;8.82;;;;;;;-1.36;95.11;101675.06;20944005;28;20045;-79
2021/11/23 05:29:45;;;;;;;19.50;9.02;;;;;;;-1.41;94.85;101679.94;20943298;28;20126;-80
2021/11/23 05:39:47;;;;;;;21.92;10.57;;;;;;;-1.43;95.20;101688.38;20924474;28;20064;-80
2021/11/23 05:49:49;;;;;;;20.30;10.43;;;;;;;-1.51;95.25;101705.94;20918633;28;20071;-80
2021/11/23 05:59:51;;;;;;;19.40;9.90;;;;;;;-1.59;94.69;101704.63;20928165;28;20057;-80
2021/11/23 06:09:52;;;;;;;22.02;9.57;;;;;;;-1.63;95.32;101707.84;20941309;28;20075;-80
2021/11/23 06:19:54;;;;;;;18.08;9.80;;;;;;;-1.72;95.60;101702.22;20928522;28;20119;-80
2021/11/23 06:29:56;;;;;;;20.95;10.63;;;;;;;-1.68;95.63;101722.09;20951864;28;20070;-81
2021/11/23 06:39:57;;;;;;;19.20;10.30;;;;;;;-1.61;94.59;101735.38;20951194;28;20045;-80
2021/11/23 06:49:59;;;;;;;21.85;10.35;;;;;;;-1.62;94.73;101735.31;20935686;28;20045;-80
2021/11/23 07:00:01;;;;;;;19.20;9.95;;;;;;;-1.70;94.40;101759.66;20921076;28;20049;-80
2021/11/23 07:10:07;;;;;;;19.15;10.65;;;;;;;-1.61;94.86;101763.63;20943695;28;20568;-80
2021/11/23 07:20:28;;;;;;;19.77;9.70;;;;;;;-1.50;94.52;101760.75;20953231;28;20139;-81
2021/11/23 07:30:30;;;;;;;17.60;10.23;;;;;;;-1.37;94.00;101769.22;20939423;28;20110;-81
2021/11/23 07:40:36;;;;;;;17.58;9.98;;;;;;;-1.13;93.21;101784.19;20961241;28;20064;-80
2021/11/23 07:50:39;;;;;;;17.65;9.52;;;;;;;-1.10;93.90;101781.81;20946947;28;20517;-81
2021/11/23 08:00:41;;;;;;;18.50;8.60;;;;;;;-0.94;92.90;101786.06;20932294;28;20064;-80
2021/11/23 08:10:43;;;;;;;22.40;11.35;;;;;;;-0.61;92.32;101794.66;20898307;28;20406;-82
2021/11/23 08:20:45;;;;;;;21.45;10.80;;;;;;;-0.43;92.05;101793.03;20851905;28;20094;-82
2021/11/23 08:30:47;;;;;;;18.83;10.57;;;;;;;-0.08;91.34;101792.22;20854391;28;20091;-83
2021/11/23 08:40:48;;;;;;;18.10;9.45;;;;;;;0.21;90.33;101790.19;20870067;28;20110;-83
2021/11/23 08:50:50;;;;;;;18.58;9.85;;;;;;;0.47;88.87;101800.03;20924199;28;20107;-84
2021/11/23 09:00:52;;;;;;;16.30;8.80;;;;;;;0.54;88.52;101800.34;20935996;28;20045;-84
2021/11/23 09:10:54;;;;;;;17.80;8.77;;;;;;;0.83;87.03;101801.72;20922969;28;20053;-83
2021/11/23 09:20:56;;;;;;;14.43;7.53;;;;;;;1.15;85.71;101804.06;20848427;28;20049;-83
2021/11/23 09:30:58;;;;;;;17.63;7.63;;;;;;;1.30;83.90;101813.31;20841533;28;20037;-83
2021/11/23 09:41:03;;;;;;;14.25;7.75;;;;;;;1.68;83.05;101810.69;20889199;28;20104;-83
2021/11/23 09:51:10;;;;;;;11.80;7.13;;;;;;;2.12;82.32;101796.19;20927342;28;20093;-83
2021/11/23 10:01:12;;;;;;;10.15;5.93;;;;;;;2.37;79.38;101786.81;20930278;28;20114;-84
2021/11/23 10:11:40;;;;;;;10.27;5.72;;;;;;;2.46;77.87;101772.56;20926858;28;20111;-86
2021/11/23 10:21:54;;;;;;;13.10;5.80;;;;;;;2.61;76.98;101767.09;20895077;28;20045;-85
2021/11/23 10:31:55;;;;;;;9.07;5.47;;;;;;;2.80;76.11;101753.16;20859965;28;20620;-85
2021/11/23 10:42:00;;;;;;;13.45;5.78;;;;;;;3.12;74.83;101746.59;20878944;28;20045;-83
2021/11/23 10:52:04;;;;;;;9.32;5.65;;;;;;;3.50;74.66;101731.53;20912794;28;20049;-83
2021/11/23 11:02:07;;;;;;;8.50;4.97;;;;;;;3.58;74.17;101733.53;20887522;28;20051;-83
2021/11/23 11:12:11;;;;;;;8.87;4.80;;;;;;;3.79;72.17;101727.34;20876028;28;20061;-83
2021/11/23 11:22:15;;;;;;;6.82;3.72;;;;;;;4.01;71.63;101718.53;20815549;28;20057;-82
2021/11/23 11:32:35;;;;;;;8.63;4.25;;;;;;;4.29;69.41;101709.91;20830102;28;20102;-81
2021/11/23 11:42:37;;;;;;;8.15;4.32;;;;;;;4.34;70.17;101703.16;20810187;28;20041;-82
2021/11/23 11:53:00;;;;;;;8.77;4.45;;;;;;;4.62;68.00;101694.50;20846565;28;20049;-82
2021/11/23 12:03:08;;;;;;;7.65;3.90;;;;;;;4.69;68.05;101674.78;20837613;28;20044;-82
2021/11/23 12:13:25;;;;;;;6.88;3.95;;;;;;;4.79;66.29;101669.94;20874276;28;20115;-82
2021/11/23 12:24:01;;;;;;;8.13;3.80;;;;;;;5.07;63.20;101655.09;20863659;28;20045;-82
2021/11/23 12:34:06;;;;;;;7.10;3.50;;;;;;;5.11;64.39;101651.75;20829722;28;20076;-82
2021/11/23 12:44:20;;;;;;;8.05;3.65;;;;;;;5.33;63.39;101641.09;20814804;28;20049;-82
2021/11/23 12:54:35;;;;;;;6.20;2.92;;;;;;;5.34;63.33;101627.25;20830184;28;20461;-82
2021/11/23 13:04:41;;;;;;;7.70;3.42;;;;;;;5.42;62.32;101624.00;20839154;28;20038;-81
2021/11/23 13:15:02;;;;;;;5.32;2.60;;;;;;;5.70;61.12;101621.22;20926324;28;20417;-81
2021/11/23 13:25:04;;;;;;;6.55;2.30;;;;;;;5.69;59.71;101614.25;20934434;28;20041;-81
2021/11/23 13:35:09;;;;;;;6.93;2.25;;;;;;;5.73;59.30;101599.63;20923915;28;20041;-81
2021/11/23 13:45:19;;;;;;;4.75;1.98;;;;;;;5.86;59.21;101602.53;20942206;28;20123;-81
2021/11/23 13:55:27;;;;;;;5.47;2.08;;;;;;;5.80;58.90;101586.81;20945466;28;20403;-81
2021/11/23 14:05:34;;;;;;;3.45;1.50;;;;;;;5.94;58.37;101587.16;20938927;28;20118;-83
2021/11/23 14:15:47;;;;;;;2.55;1.10;;;;;;;6.01;58.78;101591.63;20917588;28;20110;-84
2021/11/23 14:26:20;;;;;;;7.82;3.35;;;;;;;5.83;60.52;101596.38;20917400;28;20045;-85
2021/11/23 14:36:32;;;;;;;10.45;2.75;;;;;;;5.69;61.26;101592.59;20930020;28;20102;-83
2021/11/23 14:46:35;;;;;;;10.80;4.25;;;;;;;5.57;61.23;101595.78;20944044;28;20045;-81
2021/11/23 14:56:37;;;;;;;8.93;4.40;;;;;;;5.50;61.68;101591.28;20902188;28;20049;-82
2021/11/23 15:06:39;;;;;;;12.73;4.68;;;;;;;5.24;63.62;101586.31;20897397;28;20053;-82
2021/11/23 15:16:40;;;;;;;14.10;5.07;;;;;;;4.98;65.84;101589.94;20894768;28;20049;-83
2021/11/23 15:26:42;;;;;;;12.88;4.15;;;;;;;4.70;67.00;101588.38;20902919;28;20409;-80
2021/11/23 15:36:44;;;;;;;7.85;3.58;;;;;;;4.40;68.20;101596.16;20878296;28;20107;-84
2021/11/23 15:46:47;;;;;;;7.90;4.18;;;;;;;4.09;69.24;101595.28;20830023;28;20079;-83
2021/11/23 15:56:48;;;;;;;12.52;4.45;;;;;;;3.74;71.43;101589.03;20828848;28;20046;-83
2021/11/23 16:06:50;;;;;;;13.25;5.93;;;;;;;3.49;72.36;101592.53;20817060;28;20399;-82
2021/11/23 16:16:51;;;;;;;17.23;7.88;;;;;;;3.27;73.08;101590.97;20872699;28;20070;-83
2021/11/23 16:26:53;;;;;;;23.13;11.95;;;;;;;3.20;74.18;101600.22;20894656;28;20431;-83
2021/11/23 16:36:58;;;;;;;14.73;7.03;;;;;;;2.97;75.23;101591.69;20907819;28;20205;-83
2021/11/23 16:46:59;;;;;;;17.15;8.50;;;;;;;2.89;76.31;101602.59;20909626;28;20091;-82
2021/11/23 16:57:01;;;;;;;17.17;7.25;;;;;;;2.68;77.60;101593.25;20873708;28;20103;-82
2021/11/23 17:07:03;;;;;;;16.70;7.55;;;;;;;2.61;77.52;101605.91;20825778;28;20574;-83
2021/11/23 17:17:05;;;;;;;15.45;8.00;;;;;;;2.49;78.41;101602.09;20852843;28;20404;-82
2021/11/23 17:27:09;;;;;;;17.15;7.43;;;;;;;2.30;79.58;101608.28;20875463;28;20033;-82
2021/11/23 17:37:12;;;;;;;16.30;8.27;;;;;;;2.16;80.29;101616.34;20922993;28;20414;-83
2021/11/23 17:57:23;;;;;;;22.90;8.55;;;;;;;1.87;81.97;101617.78;20919938;28;20053;-82
2021/11/23 18:07:25;;;;;;;15.90;9.13;;;;;;;1.61;82.69;101612.47;20919810;28;20091;-82
2021/11/23 18:17:27;;;;;;;12.30;6.60;;;;;;;1.34;84.03;101613.91;20929461;28;20053;-81
2021/11/23 18:27:28;;;;;;;15.93;7.15;;;;;;;1.17;85.44;101619.28;20930056;28;20044;-82
2021/11/23 18:37:30;;;;;;;34.85;17.70;;;;;;;1.07;85.94;101622.28;20930302;28;20094;-83
2021/11/23 18:47:32;;;;;;;28.77;14.07;;;;;;;1.31;85.45;101619.84;20934113;28;20053;-83
2021/11/23 18:57:34;;;;;;;27.45;12.02;;;;;;;1.27;85.99;101626.56;20915005;28;20045;-84
2021/11/23 19:07:36;;;;;;;39.60;15.38;;;;;;;1.26;85.78;101617.09;20903700;28;20135;-83
2021/11/23 19:18:21;;;;;;;21.05;10.70;;;;;;;1.05;86.11;101626.47;20926255;28;20072;-83
2021/11/23 19:28:48;;;;;;;21.98;9.80;;;;;;;0.82;87.65;101619.50;20897880;28;20088;-83
2021/11/23 19:38:50;;;;;;;21.13;10.02;;;;;;;0.85;87.48;101622.19;20937351;28;20484;-83
2021/11/23 20:00:38;;;;;;;21.73;10.27;;;;;;;0.66;89.02;101618.78;20722163;28;20053;-82
2021/11/23 20:10:41;;;;;;;19.98;10.30;;;;;;;0.70;88.57;101620.69;20846477;28;20104;-82
2021/11/23 20:20:42;;;;;;;24.33;11.57;;;;;;;0.68;88.86;101614.59;20819430;28;20046;-84
2021/11/23 20:30:48;;;;;;;19.73;10.88;;;;;;;0.55;88.89;101612.31;20855072;28;20052;-84
2021/11/23 20:40:50;;;;;;;24.50;11.27;;;;;;;0.57;89.12;101604.63;20862527;28;20111;-84
2021/11/23 20:50:52;;;;;;;22.58;11.00;;;;;;;0.56;89.59;101616.63;20825048;28;20394;-85
2021/11/23 21:00:54;;;;;;;25.52;11.00;;;;;;;0.53;88.90;101611.38;20855406;28;20414;-84
2021/11/23 21:11:10;;;;;;;21.33;11.65;;;;;;;0.42;89.91;101605.72;20826674;28;20101;-85
2021/11/23 21:21:12;;;;;;;32.92;11.13;;;;;;;0.17;90.50;101593.44;20837207;28;20605;-85
2021/11/23 21:31:14;;;;;;;24.25;11.27;;;;;;;0.15;91.29;101589.91;20854652;28;20052;-85
2021/11/23 21:41:16;;;;;;;22.55;11.70;;;;;;;0.21;91.09;101585.03;20852608;28;20053;-84
2021/11/23 21:51:17;;;;;;;25.02;11.23;;;;;;;0.20;91.25;101591.00;20831697;28;20439;-84
2021/11/23 22:01:20;;;;;;;19.40;10.18;;;;;;;0.34;91.24;101583.03;20839039;28;20050;-83
2021/11/23 22:11:23;;;;;;;18.30;8.90;;;;;;;0.07;91.49;101572.34;20820670;28;20148;-84
2021/11/23 22:21:24;;;;;;;22.85;9.73;;;;;;;-0.11;92.10;101569.81;20816922;28;20045;-84
2021/11/23 22:31:26;;;;;;;20.23;10.82;;;;;;;-0.19;92.77;101560.84;20817374;28;20470;-83
2021/11/23 22:41:27;;;;;;;21.38;10.43;;;;;;;-0.23;92.98;101551.25;20815054;28;20483;-83
2021/11/23 22:51:29;;;;;;;18.52;10.27;;;;;;;-0.13;92.73;101551.72;20835452;28;20045;-82
2021/11/23 23:11:39;;;;;;;19.52;8.25;;;;;;;0.17;91.30;101547.06;20718283;28;20547;-70
2021/11/23 23:21:41;;;;;;;17.70;8.20;;;;;;;0.19;90.60;101524.88;20843916;28;20053;-70
2021/11/23 23:31:43;;;;;;;13.55;7.53;;;;;;;0.11;90.31;101510.75;20819019;28;20105;-70
2021/11/23 23:41:45;;;;;;;15.18;7.82;;;;;;;-0.06;90.62;101499.69;20819473;28;20057;-70
2021/11/23 23:51:46;;;;;;;16.75;8.40;;;;;;;-0.22;91.16;101501.53;20818214;28;20048;-68
